Airfield :
LOGIN :

Register | Disclaimer

   EN    FR    IT 

 










Legend :    VFR   Marginal VFR   IFR   Intensive IFR   Very Intensive IFR
Visi :
Ceiling :
>= 8 km
>= 3000ft
5 to 8 km
1000 to 3000 ft
1500m to 5 km
500 to 1000 ft
800 to 1500m
200 to 500 ft
< 800m
< 200 ft
Symbols :   Thunderstorms  Fog  Heavy snow  Heavy precipitations  Wind > 20 kt
SIGMETs :     Misc.  Thunderstorms  Icing  Turbulence  Mountain Waves  Volcanic Ashes






- Airport Elevation : 147 ft
- IATA code : DUS


EDDL - Düsseldorf Int.

CURRENT METAR :
  • 061720Z 20016KT 6000 -RADZ FEW009 BKN012 07/06 Q1007 BECMG BKN008

EXPIRED METARs :
  • 061650Z 19013KT 7000 -RADZ FEW009 BKN011 07/06 Q1007 BECMG BKN008
  • 061620Z 17013KT 8000 -RA SCT013 BKN016 07/06 Q1007 TEMPO BKN012
  • 061550Z 17013KT 9999 -RA BKN018 06/06 Q1007 TEMPO BKN012
  • 061520Z 17013KT 9999 -RA FEW010 BKN015 06/05 Q1007 TEMPO BKN012
  • 061450Z 17013KT 9000 -RA OVC013 06/05 Q1008 TEMPO BKN015

TAF TAF EDDL
Valid from the 06 at 18:00 until the 08 at 00:00 UTC


061700Z 0618/0724 20015G25KT 9000 BKN011
PROB30
TEMPO 0618/0620 4000 -RADZ BKN008
PROB30
TEMPO 0620/0702 4000 SHRA BKN008 BKN030TCU
TEMPO 0702/0709 BKN008
BECMG 0703/0706 25012KT
BECMG 0709/0712 SCT012 BKN020



MET'MAP, your aeronautical weather chart ! - Copyright ORBIFLY December 2007 - Disclaimer

ORBIFLY MET'MAP TEAM :

Programming & Development : Alexandra Zaïnal
Concept & original design : Baudouin d'Aumeries
Assistance for programming : Marc-Olivier Méhu
Technical & hardware support : Manuel Goepfert

Contact : metmap@orbifly.com




SOURCES & CREDITS :

   NOAA